Time;durP1;ratioP1;P1;durP2;ratioP2;P2;SDS_P1;SDS_P2;PMS_P1;PMS_P2;Temp;Humidity;BMP_temperature;BMP_pressure;BME280_temperature;BME280_humidity;BME280_pressure;Samples;Min_cycle;Max_cycle;Signal;HPM_P1;HPM_P2
2022/02/11 00:00:08;;;;;;;;;22.75;22.75;;;;;6.40;74.11;102584.63;5072766;28;50423;-64
2022/02/11 00:07:30;;;;;;;;;24.50;22.00;;;;;6.38;73.88;102591.44;5073455;28;49786;-65
2022/02/11 00:09:55;;;;;;;;;23.50;21.75;;;;;6.34;73.58;102592.03;5072821;28;49737;-64
2022/02/11 00:12:22;;;;;;;;;19.00;19.00;;;;;6.33;73.80;102593.72;5073014;28;49751;-64
2022/02/11 00:17:31;;;;;;;;;14.50;12.50;;;;;6.29;74.14;102603.06;5073216;28;49786;-64
2022/02/11 00:19:57;;;;;;;;;24.25;22.75;;;;;6.27;73.44;102595.91;5072669;28;49739;-64
2022/02/11 00:22:23;;;;;;;;;31.50;28.25;;;;;6.23;73.78;102588.69;5072870;28;49618;-64
2022/02/11 00:24:51;;;;;;;;;25.00;23.00;;;;;6.20;73.79;102585.91;5054621;28;50067;-64
2022/02/11 00:32:39;;;;;;;;;23.50;21.75;;;;;6.19;73.50;102592.81;5072541;28;49963;-64
2022/02/11 00:35:18;;;;;;;;;23.25;23.25;;;;;6.16;73.72;102595.19;5072763;28;49627;-64
2022/02/11 00:37:43;;;;;;;;;26.25;26.00;;;;;6.17;73.69;102589.19;5072701;27;49744;-64
2022/02/11 00:40:25;;;;;;;;;25.50;22.50;;;;;6.14;73.63;102590.69;5072499;28;49787;-64
2022/02/11 01:04:12;;;;;;;;;22.50;22.50;;;;;5.96;73.64;102613.78;5072325;27;49902;-63
2022/02/11 01:06:38;;;;;;;;;24.25;23.50;;;;;5.95;73.24;102617.19;5073157;27;49784;-63
2022/02/11 01:09:05;;;;;;;;;23.00;18.00;;;;;5.88;73.46;102609.72;5072175;27;49861;-63
2022/02/11 01:11:40;;;;;;;;;23.75;22.75;;;;;5.91;73.40;102615.19;5072959;27;49986;-63
2022/02/11 01:14:05;;;;;;;;;26.75;23.25;;;;;5.89;73.57;102621.97;5073193;27;50181;-63
2022/02/11 01:16:43;;;;;;;;;27.75;26.00;;;;;5.86;73.76;102614.81;5071763;28;49889;-63
2022/02/11 01:22:16;;;;;;;;;23.00;21.75;;;;;5.83;73.13;102627.66;5065983;28;50535;-63
2022/02/11 01:35:19;;;;;;;;;25.00;23.75;;;;;5.78;72.92;102633.34;5071784;28;49884;-62
2022/02/11 01:38:05;;;;;;;;;23.25;20.50;;;;;5.64;73.81;102608.94;5071785;27;49805;-62
2022/02/11 01:53:51;;;;;;;;;20.00;18.50;;;;;5.37;72.73;102602.69;5071255;28;49747;-62
2022/02/11 02:09:54;;;;;;;;;24.50;22.00;;;;;5.47;73.16;102668.56;5071091;28;49981;-62
2022/02/11 02:18:11;;;;;;;;;26.50;25.50;;;;;5.43;73.13;102670.84;5072991;27;49718;-62
2022/02/11 02:38:53;;;;;;;;;19.00;17.75;;;;;5.33;73.25;102689.22;5074114;27;49956;-62
2022/02/11 02:57:52;;;;;;;;;18.75;18.75;;;;;5.22;73.31;102703.16;5070310;27;50284;-62
2022/02/11 03:49:21;;;;;;;;;22.00;18.75;;;;;4.90;73.19;102758.91;5069071;27;49858;-62
2022/02/11 03:52:06;;;;;;;;;22.75;21.00;;;;;4.90;73.80;102766.72;5079727;27;50062;-62
2022/02/11 03:57:48;;;;;;;;;23.00;20.50;;;;;4.85;72.81;102761.19;5037539;28;50047;-61
2022/02/11 04:56:42;;;;;;;;;23.75;21.25;;;;;4.60;73.75;102840.72;5075879;27;49797;-62
2022/02/11 05:01:52;;;;;;;;;24.00;24.00;;;;;4.34;73.54;102803.97;5072277;27;49925;-61
2022/02/11 05:04:17;;;;;;;;;21.25;20.00;;;;;4.60;73.51;102857.25;5072043;28;49999;-63
2022/02/11 05:06:42;;;;;;;;;21.50;19.75;;;;;4.59;73.08;102857.13;5071802;28;50402;-62
2022/02/11 05:09:08;;;;;;;;;24.75;23.50;;;;;4.56;73.11;102855.22;5071959;28;51456;-62
2022/02/11 05:11:33;;;;;;;;;26.50;20.50;;;;;4.58;72.70;102856.22;5072128;28;50032;-62
2022/02/11 05:13:58;;;;;;;;;19.25;17.75;;;;;4.56;73.14;102863.00;5053939;28;50088;-61
2022/02/11 05:16:24;;;;;;;;;21.50;20.00;;;;;4.16;73.31;102793.06;5071736;28;49683;-61
2022/02/11 05:18:49;;;;;;;;;27.00;24.00;;;;;4.55;73.10;102862.91;5072110;28;49874;-62
2022/02/11 05:21:15;;;;;;;;;23.75;23.50;;;;;4.46;73.47;102851.75;5071966;28;49912;-61
2022/02/11 05:23:40;;;;;;;;;26.75;23.25;;;;;4.54;73.04;102866.28;5072226;28;49680;-61
2022/02/11 05:26:06;;;;;;;;;24.00;20.75;;;;;4.53;73.44;102867.94;5071743;28;50693;-61
2022/02/11 05:28:31;;;;;;;;;23.75;21.25;;;;;4.45;73.42;102863.88;5071750;28;49698;-61
2022/02/11 05:30:56;;;;;;;;;27.00;23.75;;;;;4.50;72.80;102883.31;5071737;28;49751;-61
2022/02/11 05:33:23;;;;;;;;;23.75;20.25;;;;;4.49;73.56;102883.22;5071902;28;50160;-61
2022/02/11 05:35:48;;;;;;;;;24.25;20.25;;;;;4.31;73.76;102856.66;5071739;28;51429;-62
2022/02/11 05:38:14;;;;;;;;;27.00;24.75;;;;;4.35;73.46;102879.53;5065137;28;49785;-62
2022/02/11 05:40:40;;;;;;;;;19.00;17.50;;;;;4.39;73.64;102889.38;5071693;28;49797;-61
2022/02/11 05:43:05;;;;;;;;;31.50;28.00;;;;;4.46;73.28;102906.38;5071782;28;49942;-62
2022/02/11 05:45:31;;;;;;;;;25.75;21.50;;;;;4.46;73.06;102908.97;5070728;28;50476;-61
2022/02/11 05:47:56;;;;;;;;;24.50;23.25;;;;;4.30;73.70;102879.16;5071434;28;49682;-61
2022/02/11 05:50:22;;;;;;;;;27.75;26.00;;;;;4.36;73.55;102898.63;5071624;28;49744;-61
2022/02/11 05:52:47;;;;;;;;;27.75;21.00;;;;;4.43;73.59;102909.63;5071513;28;49656;-61
2022/02/11 05:55:12;;;;;;;;;28.75;22.25;;;;;4.43;73.25;102916.53;5070757;28;50785;-62
2022/02/11 05:57:38;;;;;;;;;23.50;19.50;;;;;3.91;73.40;102826.56;5071372;28;49642;-62
2022/02/11 06:00:05;;;;;;;;;22.00;21.00;;;;;4.41;73.00;102928.50;5070279;28;49775;-62
2022/02/11 06:02:31;;;;;;;;;21.50;18.00;;;;;4.41;73.29;102932.00;5071983;27;49784;-62
2022/02/11 06:04:56;;;;;;;;;23.25;21.50;;;;;4.42;72.84;102938.13;5074488;27;50067;-62
2022/02/11 06:07:21;;;;;;;;;31.25;28.25;;;;;4.41;73.16;102932.00;5072267;27;49691;-63
2022/02/11 06:09:47;;;;;;;;;30.25;24.75;;;;;4.38;73.09;102929.16;5071208;27;49806;-63
2022/02/11 06:12:13;;;;;;;;;35.75;31.00;;;;;4.37;72.72;102923.84;5075269;27;49851;-63
2022/02/11 06:14:38;;;;;;;;;38.00;32.50;;;;;4.35;72.58;102933.22;5070158;28;50333;-62
2022/02/11 06:17:04;;;;;;;;;46.50;37.75;;;;;4.31;72.85;102925.16;5070959;28;49844;-62
2022/02/11 06:19:30;;;;;;;;;49.25;41.50;;;;;4.34;72.77;102933.97;5071140;28;50010;-62
2022/02/11 06:21:55;;;;;;;;;51.00;43.00;;;;;4.31;72.63;102937.25;5071217;28;49923;-62
2022/02/11 06:24:20;;;;;;;;;54.50;46.75;;;;;4.31;73.33;102940.75;5070888;28;49653;-63
2022/02/11 06:26:46;;;;;;;;;51.00;44.25;;;;;4.30;73.64;102946.75;5071100;28;49774;-63
2022/02/11 06:29:12;;;;;;;;;53.50;46.00;;;;;4.28;72.84;102956.13;5053479;28;49766;-63
2022/02/11 06:31:38;;;;;;;;;55.75;47.25;;;;;4.26;73.05;102949.91;5070648;27;49893;-64
2022/02/11 06:34:06;;;;;;;;;53.00;43.75;;;;;3.94;73.56;102891.78;5070648;28;50965;-74
2022/02/11 06:36:32;;;;;;;;;40.50;39.25;;;;;4.25;73.43;102947.19;5070784;28;50038;-64
2022/02/11 06:38:57;;;;;;;;;49.75;41.50;;;;;4.23;72.97;102952.22;5070832;28;49712;-64
2022/02/11 06:41:22;;;;;;;;;50.50;45.50;;;;;4.13;73.45;102947.06;5071072;27;49827;-64
2022/02/11 06:43:48;;;;;;;;;46.75;37.00;;;;;4.26;72.95;102972.41;5070579;28;50437;-64
2022/02/11 06:46:13;;;;;;;;;46.75;38.50;;;;;4.25;73.11;102968.88;5070368;28;49817;-65
2022/02/11 06:48:38;;;;;;;;;47.25;41.00;;;;;4.10;72.57;102948.53;5070802;28;49704;-65
2022/02/11 06:51:04;;;;;;;;;33.50;31.25;;;;;4.17;72.83;102962.16;5070911;28;49711;-66
2022/02/11 06:53:29;;;;;;;;;38.75;35.50;;;;;4.22;73.24;102971.22;5070399;28;50336;-67
2022/02/11 06:55:55;;;;;;;;;40.00;33.75;;;;;4.19;72.72;102970.97;5070463;28;49739;-67
2022/02/11 06:58:21;;;;;;;;;32.00;26.50;;;;;4.09;73.11;102957.09;5070544;28;49916;-67
2022/02/11 07:00:49;;;;;;;;;32.00;30.50;;;;;4.17;72.87;102988.16;5070481;28;49734;-66
2022/02/11 07:03:15;;;;;;;;;32.00;32.00;;;;;4.15;72.18;102992.31;5070407;27;50304;-66
2022/02/11 07:05:41;;;;;;;;;28.25;26.25;;;;;4.00;72.58;102978.03;5069476;28;49889;-67
2022/02/11 07:08:08;;;;;;;;;34.00;30.50;;;;;4.13;72.11;103013.75;5070494;27;49582;-66
2022/02/11 07:10:34;;;;;;;;;25.50;25.25;;;;;3.98;72.56;102990.00;5070504;28;49699;-67
2022/02/11 07:13:00;;;;;;;;;40.50;37.25;;;;;4.13;73.32;103029.34;5073813;27;50772;-66
2022/02/11 07:15:34;;;;;;;;;36.50;28.25;;;;;3.85;73.43;102988.06;5073188;27;49992;-70
2022/02/11 07:18:00;;;;;;;;;33.00;28.75;;;;;4.11;73.66;103033.50;5070353;28;49846;-60
2022/02/11 07:20:25;;;;;;;;;30.75;29.50;;;;;4.12;73.03;103041.44;5073203;27;49946;-61
2022/02/11 07:22:51;;;;;;;;;35.75;31.50;;;;;4.11;73.75;103037.03;5070138;28;50616;-60
2022/02/11 07:25:16;;;;;;;;;33.00;30.75;;;;;4.09;73.88;103049.00;5069893;27;53299;-65
2022/02/11 07:27:41;;;;;;;;;36.50;31.75;;;;;4.06;73.36;103043.53;5071583;27;50016;-65
2022/02/11 07:30:08;;;;;;;;;26.00;25.00;;;;;3.86;73.34;102995.09;5070482;27;49954;-66
2022/02/11 07:32:34;;;;;;;;;33.50;29.75;;;;;4.10;73.12;103056.00;5069671;27;49842;-66
2022/02/11 07:35:03;;;;;;;;;33.00;29.00;;;;;4.08;72.85;103054.97;5070234;27;49726;-63
2022/02/11 07:37:30;;;;;;;;;35.50;35.50;;;;;4.06;72.99;103059.13;5071747;28;49756;-64
2022/02/11 07:39:58;;;;;;;;;32.00;30.00;;;;;4.14;73.27;103083.16;5075625;27;49808;-64
2022/02/11 07:42:25;;;;;;;;;26.75;22.75;;;;;4.07;74.15;103084.34;5072652;28;51618;-63
2022/02/11 07:44:51;;;;;;;;;31.25;30.50;;;;;4.08;73.74;103082.66;5069639;27;49803;-65
2022/02/11 07:47:16;;;;;;;;;38.00;30.00;;;;;4.14;73.47;103081.47;5070140;28;49827;-63
2022/02/11 07:49:42;;;;;;;;;31.50;27.00;;;;;4.20;74.02;103088.88;5070380;27;49839;-62
2022/02/11 07:52:07;;;;;;;;;37.00;35.25;;;;;4.23;73.81;103095.22;5071184;28;49892;-64
2022/02/11 07:54:33;;;;;;;;;30.50;25.50;;;;;4.25;73.52;103097.97;5074198;27;49830;-63
2022/02/11 07:56:58;;;;;;;;;28.50;27.50;;;;;4.27;73.68;103104.22;5071380;27;49698;-64
2022/02/11 07:59:24;;;;;;;;;34.00;33.00;;;;;4.30;73.15;103112.25;5069431;27;49925;-63
2022/02/11 08:01:49;;;;;;;;;21.75;20.75;;;;;4.35;73.48;103125.66;5052058;28;50404;-64
2022/02/11 08:04:14;;;;;;;;;32.25;28.75;;;;;4.38;73.39;103121.63;5069393;28;49974;-64
2022/02/11 08:06:40;;;;;;;;;28.50;27.75;;;;;4.39;73.64;103114.72;5069840;28;49772;-64
2022/02/11 08:09:05;;;;;;;;;31.75;29.00;;;;;4.32;73.01;103098.59;5069598;28;49637;-64
2022/02/11 08:11:31;;;;;;;;;36.00;32.50;;;;;4.43;73.21;103111.56;5069100;28;50191;-64
2022/02/11 08:13:56;;;;;;;;;34.25;31.25;;;;;4.53;73.36;103125.47;5069499;28;49930;-64
2022/02/11 08:16:21;;;;;;;;;47.75;38.00;;;;;4.56;72.84;103130.94;5073350;27;50493;-64
2022/02/11 08:18:47;;;;;;;;;43.25;35.75;;;;;4.58;73.19;103137.19;5073057;28;50174;-65
2022/02/11 08:21:13;;;;;;;;;31.75;29.25;;;;;4.64;72.96;103143.69;5072787;28;50654;-65
2022/02/11 08:23:38;;;;;;;;;41.75;38.00;;;;;4.59;72.04;103140.69;5072634;27;49633;-64
2022/02/11 08:26:04;;;;;;;;;38.75;32.75;;;;;4.71;72.75;103146.88;5078280;27;49733;-64
2022/02/11 08:28:31;;;;;;;;;35.75;33.25;;;;;4.75;72.28;103148.97;5072825;28;49757;-64
2022/02/11 08:30:56;;;;;;;;;36.00;34.50;;;;;4.66;72.43;103136.91;5054004;28;50775;-64
2022/02/11 08:33:23;;;;;;;;;39.25;34.00;;;;;4.81;72.39;103154.66;5072570;28;49681;-64
2022/02/11 08:35:50;;;;;;;;;29.00;27.00;;;;;4.86;72.48;103161.16;5072719;28;50017;-64
2022/02/11 08:38:17;;;;;;;;;31.75;29.25;;;;;4.87;71.92;103168.19;5076618;27;49833;-64
2022/02/11 08:40:42;;;;;;;;;37.75;35.25;;;;;4.77;72.33;103157.81;5054415;27;50505;-64
2022/02/11 08:43:08;;;;;;;;;36.50;32.50;;;;;4.84;71.72;103143.63;5074999;27;50095;-64
2022/02/11 08:45:37;;;;;;;;;34.00;33.00;;;;;5.01;72.34;103169.31;5072326;27;49869;-63
2022/02/11 08:48:03;;;;;;;;;31.00;29.00;;;;;4.65;72.06;103096.97;5072639;28;50352;-64
2022/02/11 08:50:29;;;;;;;;;30.50;29.00;;;;;5.10;71.85;103171.75;5072334;28;50735;-64
2022/02/11 08:52:54;;;;;;;;;34.50;28.75;;;;;5.14;71.72;103172.16;5075662;27;49825;-64
2022/02/11 08:55:22;;;;;;;;;36.25;30.50;;;;;5.15;71.86;103171.34;5053835;28;50014;-64
2022/02/11 08:57:48;;;;;;;;;39.75;30.50;;;;;5.24;70.98;103172.88;5072462;27;49612;-64
2022/02/11 09:00:15;;;;;;;;;35.00;32.00;;;;;4.83;71.19;103090.66;5072176;27;49847;-62
2022/02/11 09:02:40;;;;;;;;;35.50;32.00;;;;;5.20;71.45;103155.19;5071981;27;49655;-67
2022/02/11 09:05:06;;;;;;;;;40.50;32.50;;;;;5.39;71.42;103187.13;5057171;28;49841;-67
2022/02/11 09:07:31;;;;;;;;;33.50;29.25;;;;;5.39;71.39;103195.84;5072364;28;49838;-66
2022/02/11 09:09:56;;;;;;;;;37.25;33.75;;;;;5.41;71.10;103204.72;5071954;27;49821;-67
2022/02/11 09:12:22;;;;;;;;;38.50;35.75;;;;;5.49;72.04;103202.72;5071124;27;50726;-66
2022/02/11 09:14:47;;;;;;;;;33.25;31.25;;;;;5.39;71.56;103174.09;5075135;27;49918;-66
2022/02/11 09:17:12;;;;;;;;;33.25;29.75;;;;;5.50;71.07;103196.75;5078988;27;49779;-67
2022/02/11 09:19:38;;;;;;;;;32.25;29.75;;;;;5.51;71.56;103189.81;5072776;27;50548;-65
2022/02/11 09:22:03;;;;;;;;;45.50;34.25;;;;;5.63;71.96;103216.84;5076776;27;49652;-66
2022/02/11 09:24:29;;;;;;;;;40.00;33.50;;;;;5.67;71.06;103201.56;5071995;28;50002;-66
2022/02/11 09:26:54;;;;;;;;;42.25;36.50;;;;;5.61;71.07;103198.50;5072571;27;50241;-66
2022/02/11 09:29:19;;;;;;;;;38.50;34.75;;;;;5.86;71.21;103229.09;5070945;28;49992;-66
2022/02/11 09:31:45;;;;;;;;;35.75;32.75;;;;;5.66;70.46;103191.94;5071664;28;50018;-65
2022/02/11 09:34:12;;;;;;;;;43.50;35.00;;;;;5.70;70.17;103186.19;5073356;28;50161;-71
2022/02/11 09:36:39;;;;;;;;;34.25;28.25;;;;;5.97;70.48;103234.38;5074153;27;49924;-62
2022/02/11 09:39:08;;;;;;;;;32.75;27.75;;;;;6.03;70.73;103231.38;5076789;27;50529;-63
2022/02/11 09:41:35;;;;;;;;;36.75;36.00;;;;;6.08;71.01;103229.09;5052252;28;49791;-62
2022/02/11 09:44:04;;;;;;;;;34.00;29.25;;;;;5.99;70.61;103213.69;5071256;28;49728;-63
2022/02/11 09:46:35;;;;;;;;;30.25;29.25;;;;;6.01;69.72;103213.00;5071189;28;50289;-63
2022/02/11 09:49:00;;;;;;;;;31.50;27.00;;;;;6.18;69.61;103240.41;5064201;28;50735;-62
2022/02/11 09:51:26;;;;;;;;;21.00;20.75;;;;;6.05;70.15;103208.94;5071340;27;49963;-63
2022/02/11 09:53:52;;;;;;;;;29.25;26.25;;;;;6.30;70.34;103238.75;5071362;28;49701;-62
2022/02/11 09:56:19;;;;;;;;;29.00;24.00;;;;;6.39;69.71;103240.25;5071563;28;49631;-62
2022/02/11 09:58:53;;;;;;;;;30.75;25.75;;;;;6.34;69.38;103223.31;5070937;28;50390;-64
2022/02/11 10:01:20;;;;;;;;;19.75;19.25;;;;;6.48;70.01;103240.97;5070967;28;49657;-63
2022/02/11 10:03:46;;;;;;;;;26.25;25.50;;;;;6.29;69.41;103212.53;5071466;28;49744;-63
2022/02/11 10:06:11;;;;;;;;;22.00;20.00;;;;;6.36;68.60;103222.63;5071527;28;49786;-65
2022/02/11 10:08:38;;;;;;;;;25.75;19.25;;;;;6.17;69.08;103173.34;5071069;27;49872;-64
2022/02/11 10:11:06;;;;;;;;;29.75;25.25;;;;;6.65;69.24;103250.06;5071131;28;49787;-63
2022/02/11 10:13:39;;;;;;;;;20.25;17.25;;;;;6.49;68.56;103214.06;5071010;27;49834;-64
2022/02/11 10:16:10;;;;;;;;;19.25;19.25;;;;;6.72;68.18;103255.88;5071278;28;50108;-64
2022/02/11 10:18:42;;;;;;;;;29.25;19.75;;;;;6.78;68.28;103258.94;5071042;27;49743;-63
2022/02/11 10:21:12;;;;;;;;;22.00;20.75;;;;;6.43;69.18;103177.06;5065014;28;49974;-63
2022/02/11 10:23:41;;;;;;;;;23.25;19.25;;;;;6.91;68.14;103257.25;5071082;28;49679;-65
2022/02/11 10:26:10;;;;;;;;;21.75;19.75;;;;;6.81;68.98;103237.38;5071301;28;49949;-64
2022/02/11 10:28:45;;;;;;;;;23.00;19.00;;;;;6.94;68.12;103268.81;5070489;27;49871;-67
2022/02/11 10:31:23;;;;;;;;;25.50;24.00;;;;;6.82;68.08;103244.41;5070729;28;49839;-67
2022/02/11 10:33:53;;;;;;;;;22.75;16.50;;;;;6.99;68.39;103280.53;5052602;28;49907;-67
2022/02/11 10:36:24;;;;;;;;;21.50;19.75;;;;;7.01;67.41;103270.22;5070987;28;49693;-75
2022/02/11 10:39:04;;;;;;;;;20.50;19.00;;;;;6.98;67.66;103270.00;5070732;28;49771;-69
2022/02/11 10:41:30;;;;;;;;;23.25;22.25;;;;;7.10;67.66;103278.75;5070940;28;49828;-70
2022/02/11 10:44:04;;;;;;;;;25.00;23.50;;;;;7.11;67.78;103272.72;5070978;28;49807;-67
2022/02/11 10:46:41;;;;;;;;;25.50;24.00;;;;;7.16;67.90;103281.81;5070688;28;49802;-68
2022/02/11 10:49:07;;;;;;;;;24.00;22.50;;;;;7.20;67.55;103281.25;5064364;28;50519;-67
2022/02/11 10:51:38;;;;;;;;;23.00;22.75;;;;;7.24;66.37;103287.59;5069128;28;49770;-68
2022/02/11 10:54:30;;;;;;;;;24.50;20.00;;;;;7.27;67.41;103288.75;5070439;28;49855;-68
2022/02/11 10:56:59;;;;;;;;;23.75;19.50;;;;;7.14;67.34;103242.53;5070871;28;49873;-68
2022/02/11 10:59:29;;;;;;;;;24.00;23.50;;;;;7.44;67.51;103282.16;5070526;28;50522;-68
2022/02/11 11:02:03;;;;;;;;;20.25;14.25;;;;;7.49;66.97;103283.38;5070284;28;50197;-68
2022/02/11 11:04:29;;;;;;;;;22.50;19.75;;;;;7.53;66.32;103287.13;5070335;28;49650;-68
2022/02/11 11:06:55;;;;;;;;;16.75;15.75;;;;;7.54;65.59;103286.38;5069864;28;49705;-68
2022/02/11 11:09:22;;;;;;;;;19.50;15.25;;;;;7.32;66.27;103240.34;5070273;28;49795;-70
2022/02/11 11:11:49;;;;;;;;;17.25;17.25;;;;;7.69;66.69;103283.13;5051966;28;49789;-68
2022/02/11 11:14:16;;;;;;;;;20.75;16.25;;;;;7.79;66.70;103271.63;5070404;27;49919;-60
2022/02/11 11:16:44;;;;;;;;;17.50;16.25;;;;;7.79;65.67;103252.44;5070316;28;49852;-69
2022/02/11 11:19:10;;;;;;;;;21.75;17.00;;;;;8.07;66.69;103271.00;5069792;28;49819;-68
2022/02/11 11:21:43;;;;;;;;;21.00;16.75;;;;;7.93;65.38;103223.84;5070146;27;49733;-76
2022/02/11 11:24:09;;;;;;;;;9.50;8.00;;;;;8.12;62.02;103269.63;5070348;27;50019;-62
2022/02/11 11:26:37;;;;;;;;;8.75;7.25;;;;;8.11;61.62;103270.44;5070306;28;49716;-62
2022/02/11 11:29:10;;;;;;;;;11.25;11.25;;;;;7.79;61.45;103223.66;5069643;28;50412;-70
2022/02/11 11:31:36;;;;;;;;;7.50;6.25;;;;;7.89;61.20;103265.34;5070082;28;49597;-66
2022/02/11 11:34:17;;;;;;;;;11.00;7.50;;;;;8.01;62.46;103281.94;5051795;28;49829;-66
2022/02/11 11:36:51;;;;;;;;;9.25;8.50;;;;;8.07;61.32;103287.59;5063775;27;49672;-63
2022/02/11 11:39:20;;;;;;;;;5.50;5.00;;;;;7.82;60.31;103245.72;5069740;28;49813;-63
2022/02/11 11:42:06;;;;;;;;;8.25;7.25;;;;;8.13;63.40;103274.06;5069896;27;49812;-65
2022/02/11 11:44:52;;;;;;;;;7.50;6.25;;;;;8.21;61.11;103285.97;5069730;27;49831;-62
2022/02/11 11:47:32;;;;;;;;;7.75;7.00;;;;;8.01;60.16;103255.78;5051528;28;50110;-63
2022/02/11 11:49:58;;;;;;;;;5.25;5.00;;;;;8.01;60.05;103254.09;5069443;27;50698;-63
2022/02/11 11:52:45;;;;;;;;;10.25;8.00;;;;;8.11;59.10;103276.56;5053018;28;49834;-64
2022/02/11 11:55:14;;;;;;;;;6.00;6.00;;;;;7.89;60.73;103202.59;5073358;28;49719;-64
2022/02/11 11:57:40;;;;;;;;;8.00;7.00;;;;;8.03;59.98;103223.69;5073406;27;49946;-63
2022/02/11 12:00:07;;;;;;;;;8.25;6.25;;;;;8.27;60.00;103252.38;5073170;28;49908;-64
2022/02/11 12:02:35;;;;;;;;;10.75;9.25;;;;;8.46;59.43;103273.81;5054759;27;50207;-64
2022/02/11 12:05:02;;;;;;;;;10.00;9.50;;;;;8.54;59.22;103267.41;5073305;28;49807;-64
2022/02/11 12:07:36;;;;;;;;;10.50;8.00;;;;;8.45;59.17;103239.69;5073477;27;49902;-64
2022/02/11 12:10:05;;;;;;;;;8.00;8.00;;;;;8.56;57.93;103231.75;5073083;28;50074;-63
2022/02/11 12:12:33;;;;;;;;;7.75;7.00;;;;;8.65;57.62;103241.94;5073266;28;49734;-64
2022/02/11 12:15:04;;;;;;;;;8.25;7.00;;;;;8.85;56.93;103261.63;5073078;28;49972;-64
2022/02/11 12:17:29;;;;;;;;;4.25;3.75;;;;;8.98;58.65;103259.06;5073121;28;49762;-64
2022/02/11 12:19:56;;;;;;;;;6.75;6.75;;;;;9.07;57.06;103257.06;5072920;28;50646;-64
2022/02/11 12:22:24;;;;;;;;;7.00;3.25;;;;;8.98;55.89;103259.06;5073014;27;49763;-64
2022/02/11 12:27:38;;;;;;;;;7.00;7.00;;;;;8.69;56.07;103168.06;5072969;28;49666;-64
2022/02/11 12:30:14;;;;;;;;;6.25;6.25;;;;;9.32;57.06;103253.41;5064675;28;49941;-64
2022/02/11 12:32:43;;;;;;;;;9.25;9.25;;;;;9.37;56.08;103236.28;5066919;28;49749;-63
2022/02/11 12:35:11;;;;;;;;;7.25;7.25;;;;;9.54;56.62;103240.88;5072921;28;49731;-65
2022/02/11 12:37:39;;;;;;;;;15.25;8.25;;;;;9.58;55.18;103236.75;5072898;27;50091;-62
2022/02/11 12:40:10;;;;;;;;;4.25;4.25;;;;;9.45;55.42;103235.03;5072516;28;50630;-64
2022/02/11 12:42:41;;;;;;;;;3.00;3.00;;;;;9.50;55.39;103231.00;5072793;28;49764;-64
2022/02/11 12:45:09;;;;;;;;;4.00;4.00;;;;;9.37;55.90;103220.56;5072832;28;49684;-64
2022/02/11 12:47:36;;;;;;;;;5.50;4.00;;;;;9.33;57.15;103203.69;5072859;27;49857;-64
2022/02/11 12:50:03;;;;;;;;;6.00;4.00;;;;;9.52;57.60;103231.09;5072294;28;50319;-71
2022/02/11 12:52:31;;;;;;;;;9.75;8.50;;;;;9.51;56.06;103232.81;5072694;28;50212;-63
2022/02/11 12:55:06;;;;;;;;;12.25;7.50;;;;;9.60;57.86;103235.13;5072385;28;49525;-62
2022/02/11 12:57:33;;;;;;;;;12.75;8.00;;;;;9.51;56.25;103213.56;5072698;28;49866;-60
2022/02/11 13:00:00;;;;;;;;;7.25;7.25;;;;;9.43;54.93;103205.19;5077915;28;50469;-62
2022/02/11 13:02:30;;;;;;;;;7.75;7.75;;;;;9.59;54.14;103212.34;5053976;28;49743;-62
2022/02/11 13:05:09;;;;;;;;;4.00;4.00;;;;;8.65;53.35;103040.31;5071122;27;50212;-63
2022/02/11 13:07:38;;;;;;;;;6.25;6.25;;;;;9.73;52.06;103207.13;5072619;28;50104;-63
2022/02/11 13:10:05;;;;;;;;;8.50;8.50;;;;;9.95;53.35;103232.13;5071760;27;50341;-63
2022/02/11 13:12:35;;;;;;;;;4.00;3.00;;;;;10.00;52.38;103201.81;5072108;28;49790;-63
2022/02/11 13:15:03;;;;;;;;;5.50;4.25;;;;;10.25;52.69;103227.91;5072117;28;49830;-63
2022/02/11 13:17:30;;;;;;;;;7.75;7.00;;;;;10.23;53.16;103233.06;5072087;28;49766;-62
2022/02/11 13:20:10;;;;;;;;;6.00;4.25;;;;;10.12;52.38;103173.69;5072028;28;49833;-63
2022/02/11 13:22:36;;;;;;;;;8.00;6.50;;;;;10.53;55.09;103223.50;5072233;28;49950;-64
2022/02/11 13:25:03;;;;;;;;;4.50;4.50;;;;;10.50;51.76;103227.66;5072076;28;49883;-61
2022/02/11 13:27:50;;;;;;;;;6.00;4.50;;;;;10.22;51.84;103188.31;5072088;28;49811;-64
2022/02/11 13:30:25;;;;;;;;;6.00;6.00;;;;;10.28;52.18;103228.06;5069591;28;50274;-63
2022/02/11 13:32:53;;;;;;;;;4.00;4.00;;;;;10.26;51.53;103225.38;5073261;27;49686;-64
2022/02/11 13:35:18;;;;;;;;;6.50;4.25;;;;;9.96;51.19;103207.69;5068044;27;50284;-66
2022/02/11 13:37:47;;;;;;;;;4.00;4.00;;;;;9.97;52.33;103222.63;5071207;28;50091;-64
2022/02/11 13:40:16;;;;;;;;;11.75;7.00;;;;;9.88;50.86;103220.34;5078658;28;49918;-64
2022/02/11 13:42:52;;;;;;;;;6.75;6.00;;;;;9.72;51.50;103218.44;5084793;28;49860;-64
2022/02/11 13:45:17;;;;;;;;;10.50;7.25;;;;;9.53;51.94;103194.47;5080574;27;49772;-62
2022/02/11 13:47:56;;;;;;;;;6.00;4.25;;;;;9.49;51.56;103202.97;5069501;27;49733;-65
2022/02/11 13:50:22;;;;;;;;;11.00;4.00;;;;;9.64;52.35;103213.53;5080149;27;49671;-65
2022/02/11 13:53:04;;;;;;;;;4.50;3.50;;;;;9.64;51.64;103211.81;5076881;27;49792;-66
2022/02/11 13:55:31;;;;;;;;;8.25;6.00;;;;;9.46;52.77;103168.72;5072550;27;49730;-66
2022/02/11 13:57:57;;;;;;;;;6.00;6.00;;;;;9.81;52.27;103210.25;5076863;27;49613;-66
2022/02/11 14:00:27;;;;;;;;;2.25;2.25;;;;;9.67;52.18;103188.41;5081885;28;51471;-65
2022/02/11 14:02:52;;;;;;;;;4.00;4.00;;;;;9.69;51.75;103189.41;5076730;28;49732;-64
2022/02/11 14:05:18;;;;;;;;;6.50;5.50;;;;;9.75;52.16;103202.91;5080804;28;49685;-64
2022/02/11 14:07:55;;;;;;;;;7.75;7.75;;;;;9.84;52.54;103207.81;5064584;28;49711;-65
2022/02/11 14:10:21;;;;;;;;;5.00;5.00;;;;;9.93;52.58;103210.09;5080238;27;50279;-65
2022/02/11 14:12:46;;;;;;;;;4.00;3.75;;;;;9.88;51.44;103177.44;5084018;28;49755;-65
2022/02/11 14:15:12;;;;;;;;;11.50;8.00;;;;;9.99;51.67;103176.38;5061063;28;49939;-66
2022/02/11 14:17:40;;;;;;;;;6.25;6.00;;;;;10.00;51.89;103180.81;5081697;28;49358;-63
2022/02/11 14:20:06;;;;;;;;;8.00;7.00;;;;;10.06;51.52;103173.34;5070859;28;49736;-64
2022/02/11 14:22:32;;;;;;;;;7.25;5.00;;;;;10.19;51.94;103172.34;5080382;28;49667;-74
2022/02/11 14:25:00;;;;;;;;;6.25;5.50;;;;;10.26;51.57;103183.34;5082296;28;49551;-67
2022/02/11 14:27:25;;;;;;;;;5.50;5.50;;;;;10.44;51.98;103196.69;5084193;28;49663;-67
2022/02/11 14:29:51;;;;;;;;;8.75;8.00;;;;;10.46;50.87;103192.44;5076431;28;50327;-67
2022/02/11 14:32:17;;;;;;;;;8.00;8.00;;;;;10.48;51.42;103197.78;5073513;27;49783;-67
2022/02/11 14:34:42;;;;;;;;;4.00;4.00;;;;;10.08;50.99;103134.97;5080376;28;49822;-66
2022/02/11 14:37:08;;;;;;;;;6.25;6.00;;;;;10.46;51.00;103205.56;5081829;28;49679;-67
2022/02/11 14:39:33;;;;;;;;;8.50;7.00;;;;;10.50;50.36;103201.38;5076548;28;49742;-66
2022/02/11 14:42:02;;;;;;;;;9.00;7.75;;;;;10.29;50.01;103159.00;5084835;28;49976;-67
2022/02/11 14:44:29;;;;;;;;;7.75;3.50;;;;;10.37;50.95;103188.34;5075317;28;49967;-66
2022/02/11 14:46:58;;;;;;;;;6.00;4.00;;;;;10.41;51.15;103201.75;5082968;27;49596;-67
2022/02/11 14:49:24;;;;;;;;;7.75;3.00;;;;;10.21;50.25;103195.25;5065419;28;51049;-65
2022/02/11 14:52:01;;;;;;;;;8.00;4.00;;;;;9.73;50.42;103112.72;5069970;28;49736;-66
2022/02/11 14:54:27;;;;;;;;;6.50;6.50;;;;;10.08;51.20;103176.94;5076033;27;49539;-67
2022/02/11 14:56:55;;;;;;;;;12.25;10.50;;;;;10.07;50.80;103204.00;5077874;27;50075;-67
2022/02/11 14:59:22;;;;;;;;;7.00;5.50;;;;;10.02;50.70;103205.44;5081115;27;51900;-66
2022/02/11 15:01:47;;;;;;;;;6.75;6.50;;;;;9.74;50.93;103169.59;5074319;28;49789;-68
2022/02/11 15:04:13;;;;;;;;;7.75;7.00;;;;;9.91;51.37;103209.09;5079636;28;49728;-67
2022/02/11 15:06:40;;;;;;;;;4.50;4.00;;;;;9.86;51.32;103200.06;5080750;28;49926;-68
2022/02/11 15:09:06;;;;;;;;;9.75;7.75;;;;;9.75;52.03;103184.56;5075062;28;49869;-67
2022/02/11 15:11:33;;;;;;;;;8.25;7.00;;;;;9.89;51.67;103203.78;5081106;28;49533;-67
2022/02/11 15:13:59;;;;;;;;;0.00;0.00;;;;;9.59;49.85;103162.50;5077481;27;49840;-67